createdAt,value
2018-03-23T00:00:32.915Z,24.08
2018-03-23T00:03:00.927Z,26.48
2018-03-23T00:05:30.272Z,24.98
2018-03-23T00:08:00.279Z,24.35
2018-03-23T00:10:30.199Z,26.65
2018-03-23T00:13:00.247Z,28.65
2018-03-23T00:15:28.251Z,27.37
2018-03-23T00:17:56.263Z,22.30
2018-03-23T00:20:24.317Z,26.23
2018-03-23T00:22:52.320Z,25.08
2018-03-23T00:25:22.779Z,23.85
2018-03-23T00:27:52.859Z,23.30
2018-03-23T00:30:42.415Z,24.10
2018-03-23T00:33:11.418Z,23.45
2018-03-23T00:35:45.011Z,22.48
2018-03-23T00:38:14.683Z,23.92
2018-03-23T00:40:44.463Z,23.25
2018-03-23T00:43:14.255Z,23.25
2018-03-23T00:45:42.279Z,22.48
2018-03-23T00:48:12.229Z,21.23
2018-03-23T00:50:40.271Z,22.30
2018-03-23T00:53:09.278Z,22.40
2018-03-23T00:55:37.299Z,24.17
2018-03-23T00:58:10.847Z,20.77
2018-03-23T01:00:45.279Z,22.00
2018-03-23T01:03:14.287Z,20.40
2018-03-23T01:05:42.295Z,23.33
2018-03-23T01:08:11.275Z,21.37
2018-03-23T01:10:40.215Z,21.25
2018-03-23T01:13:08.230Z,22.15
2018-03-23T01:15:44.407Z,22.95
2018-03-23T01:18:12.420Z,22.02
2018-03-23T01:20:41.427Z,22.80
2018-03-23T01:23:10.415Z,21.85
2018-03-23T01:25:38.462Z,22.27
2018-03-23T01:28:08.179Z,21.58
2018-03-23T01:30:44.406Z,23.52
2018-03-23T01:33:12.422Z,22.35
2018-03-23T01:35:40.430Z,21.42
2018-03-23T01:38:08.466Z,21.42
2018-03-23T01:40:40.099Z,21.05
2018-03-23T01:43:09.110Z,22.98
2018-03-23T01:45:37.106Z,24.20
2018-03-23T01:48:10.774Z,22.08
2018-03-23T01:50:40.794Z,21.55
2018-03-23T01:56:09.815Z,21.55
2018-03-23T01:58:46.159Z,23.42
2018-03-23T02:01:14.167Z,21.62
2018-03-23T02:03:42.972Z,21.33
2018-03-23T02:06:11.005Z,21.30
2018-03-23T02:08:39.986Z,24.00
2018-03-23T02:11:07.993Z,21.67
2018-03-23T02:13:37.770Z,20.70
2018-03-23T02:16:05.794Z,22.13
2018-03-23T02:18:34.794Z,21.15
2018-03-23T02:21:04.734Z,20.25
2018-03-23T02:23:36.095Z,21.20
2018-03-23T02:26:04.105Z,19.60
2018-03-23T02:28:32.138Z,19.75
2018-03-23T02:31:01.158Z,19.65
2018-03-23T02:33:33.532Z,20.08
2018-03-23T02:36:04.510Z,18.02
2018-03-23T02:38:42.920Z,19.87
2018-03-23T02:41:16.503Z,16.05
2018-03-23T02:43:50.859Z,18.65
2018-03-23T02:46:19.934Z,20.92
2018-03-23T02:48:58.074Z,18.95
2018-03-23T02:51:27.068Z,18.48
2018-03-23T02:56:48.841Z,19.83
2018-03-23T02:59:21.324Z,20.77
2018-03-23T03:01:51.102Z,18.90
2018-03-23T03:04:26.082Z,20.42
2018-03-23T03:06:54.093Z,20.20
2018-03-23T03:09:36.207Z,18.92
2018-03-23T03:12:05.162Z,21.08
2018-03-23T03:14:36.122Z,21.98
2018-03-23T03:17:15.514Z,19.75
2018-03-23T03:19:43.526Z,20.92
2018-03-23T03:22:37.341Z,21.27
2018-03-23T03:25:06.306Z,19.85
2018-03-23T03:27:35.286Z,20.20
2018-03-23T03:30:04.890Z,20.17
2018-03-23T03:32:32.902Z,21.15
2018-03-23T03:35:06.866Z,21.67
2018-03-23T03:37:34.913Z,21.73
2018-03-23T03:40:02.925Z,26.73
2018-03-23T03:42:33.626Z,21.80
2018-03-23T03:45:13.037Z,26.83
2018-03-23T03:47:45.222Z,23.58
2018-03-23T03:50:13.244Z,24.87
2018-03-23T03:52:46.717Z,25.98
2018-03-23T03:55:14.751Z,26.20
2018-03-23T03:57:48.379Z,24.02
2018-03-23T04:00:21.346Z,25.90
2018-03-23T04:02:49.374Z,26.83
2018-03-23T04:05:18.301Z,29.92
2018-03-23T04:10:41.389Z,27.90
2018-03-23T04:13:10.422Z,28.80
2018-03-23T04:15:40.186Z,26.52
2018-03-23T04:18:08.213Z,30.85
2018-03-23T04:20:36.261Z,34.88
2018-03-23T04:23:15.162Z,33.35
2018-03-23T04:25:46.394Z,32.15
2018-03-23T04:28:15.407Z,25.83
2018-03-23T04:30:43.438Z,30.35
2018-03-23T04:33:12.454Z,30.33
2018-03-23T04:35:41.457Z,32.25
2018-03-23T04:38:13.930Z,37.67
2018-03-23T04:40:41.945Z,30.85
2018-03-23T04:43:14.571Z,29.58
2018-03-23T04:45:46.250Z,40.15
2018-03-23T04:48:14.266Z,34.35
2018-03-23T04:50:43.298Z,29.40
2018-03-23T04:53:13.086Z,36.47
2018-03-23T04:55:43.014Z,34.33
2018-03-23T04:58:13.070Z,27.77
2018-03-23T05:01:00.322Z,29.63
2018-03-23T05:03:28.351Z,30.40
2018-03-23T05:05:58.101Z,30.08
2018-03-23T05:08:30.955Z,29.90
2018-03-23T05:10:59.761Z,33.92
2018-03-23T05:13:28.718Z,27.85
2018-03-23T05:16:00.662Z,30.42
2018-03-23T05:18:28.683Z,32.22
2018-03-23T05:21:03.309Z,34.15
2018-03-23T05:23:47.311Z,37.28
2018-03-23T05:29:21.434Z,31.55
2018-03-23T05:31:49.470Z,37.15
2018-03-23T05:34:25.418Z,34.35
2018-03-23T05:37:00.194Z,29.48
2018-03-23T05:39:34.405Z,38.88
2018-03-23T05:42:03.400Z,33.67
2018-03-23T05:44:32.369Z,36.05
2018-03-23T05:47:00.381Z,26.77
2018-03-23T05:52:37.937Z,37.03
2018-03-23T05:55:09.921Z,37.22
2018-03-23T05:57:37.953Z,42.05
2018-03-23T06:00:10.665Z,29.05
2018-03-23T06:02:44.608Z,40.83
2018-03-23T06:05:13.393Z,39.53
2018-03-23T06:07:51.841Z,31.73
2018-03-23T06:10:25.089Z,37.95
2018-03-23T06:13:13.169Z,34.72
2018-03-23T06:18:43.520Z,29.92
2018-03-23T06:21:18.077Z,35.88
2018-03-23T06:23:59.101Z,38.00
2018-03-23T06:26:27.119Z,39.45
2018-03-23T06:29:07.833Z,44.20
2018-03-23T06:31:35.865Z,38.17
2018-03-23T06:34:22.825Z,39.15
2018-03-23T06:36:52.777Z,34.47
2018-03-23T06:39:26.481Z,29.70
2018-03-23T06:41:54.516Z,31.95
2018-03-23T06:44:22.517Z,30.62
2018-03-23T06:46:50.529Z,29.15
2018-03-23T06:49:22.865Z,26.12
2018-03-23T06:52:03.992Z,38.90
2018-03-23T06:54:32.924Z,31.08
2018-03-23T06:57:02.995Z,38.55
2018-03-23T06:59:32.765Z,29.90
2018-03-23T07:02:04.593Z,35.70
2018-03-23T07:04:32.620Z,34.75
2018-03-23T07:07:05.905Z,29.95
2018-03-23T07:09:33.944Z,32.08
2018-03-23T07:12:01.976Z,29.98
2018-03-23T07:14:30.532Z,31.65
2018-03-23T07:16:59.325Z,28.85
2018-03-23T07:19:31.260Z,33.42
2018-03-23T07:22:01.279Z,30.05
2018-03-23T07:27:31.072Z,35.92
2018-03-23T07:30:05.677Z,29.40
2018-03-23T07:32:37.164Z,31.58
2018-03-23T07:35:05.189Z,34.85
2018-03-23T07:37:33.216Z,29.75
2018-03-23T07:40:02.117Z,37.10
2018-03-23T07:42:30.128Z,30.67
2018-03-23T07:44:59.052Z,30.33
2018-03-23T07:47:29.076Z,30.40
2018-03-23T07:50:02.308Z,27.20
2018-03-23T07:52:31.108Z,26.60
2018-03-23T07:54:59.128Z,26.85
2018-03-23T07:57:28.124Z,22.52
2018-03-23T07:59:57.116Z,26.50
2018-03-23T08:02:26.096Z,27.42
2018-03-23T08:05:03.812Z,24.48
2018-03-23T08:07:31.830Z,22.62
2018-03-23T08:09:59.872Z,22.98
2018-03-23T08:12:32.432Z,21.95
2018-03-23T08:15:00.488Z,20.10
2018-03-23T08:17:32.484Z,19.98
2018-03-23T08:20:03.180Z,19.87
2018-03-23T08:22:35.241Z,18.52
2018-03-23T08:25:04.248Z,16.00
2018-03-23T08:27:32.255Z,17.85
2018-03-23T08:30:00.884Z,18.12
2018-03-23T08:32:29.812Z,16.62
2018-03-23T08:35:02.004Z,16.52
2018-03-23T08:37:30.936Z,19.70
2018-03-23T08:39:59.316Z,16.37
2018-03-23T08:42:28.208Z,15.55
2018-03-23T08:44:57.216Z,16.00
2018-03-23T08:47:27.224Z,15.90
2018-03-23T08:49:56.858Z,18.75
2018-03-23T08:52:25.624Z,16.87
2018-03-23T08:54:55.621Z,17.48
2018-03-23T08:57:23.644Z,17.67
2018-03-23T08:59:52.100Z,23.45
2018-03-23T09:02:20.879Z,27.37
2018-03-23T09:04:48.900Z,20.02
2018-03-23T09:07:16.904Z,20.12
2018-03-23T09:09:44.928Z,19.62
2018-03-23T09:12:12.929Z,19.58
2018-03-23T09:14:41.936Z,19.23
2018-03-23T09:17:09.933Z,20.62
2018-03-23T09:19:38.715Z,18.77
2018-03-23T09:22:07.500Z,20.80
2018-03-23T09:24:36.284Z,20.17
2018-03-23T09:27:07.444Z,20.05
2018-03-23T09:29:36.220Z,20.92
2018-03-23T09:32:04.988Z,20.30
2018-03-23T09:34:33.000Z,20.50
2018-03-23T09:37:06.804Z,21.65
2018-03-23T09:39:35.640Z,20.55
2018-03-23T09:42:03.648Z,19.20
2018-03-23T09:44:32.429Z,20.12
2018-03-23T09:47:01.388Z,20.65
2018-03-23T09:49:29.735Z,22.45
2018-03-23T09:51:59.319Z,21.15
2018-03-23T09:54:27.336Z,18.10
2018-03-23T09:56:59.499Z,21.73
2018-03-23T09:59:28.556Z,22.77
2018-03-23T10:01:57.492Z,21.00
2018-03-23T10:04:26.480Z,21.70
2018-03-23T10:06:56.864Z,22.55
2018-03-23T10:09:25.289Z,19.83
2018-03-23T10:11:54.272Z,19.27
2018-03-23T10:14:22.307Z,21.62
2018-03-23T10:16:51.259Z,21.10
2018-03-23T10:19:19.263Z,19.33
2018-03-23T10:21:49.247Z,29.27
2018-03-23T10:24:17.251Z,22.65
2018-03-23T10:26:47.203Z,19.25
2018-03-23T10:29:20.823Z,20.02
2018-03-23T10:31:49.180Z,20.50
2018-03-23T10:34:22.484Z,21.10
2018-03-23T10:36:52.488Z,26.83
2018-03-23T10:39:26.461Z,22.13
2018-03-23T10:41:55.355Z,19.60
2018-03-23T10:44:23.410Z,21.15
2018-03-23T10:46:55.199Z,22.55
2018-03-23T10:49:42.096Z,21.08
2018-03-23T10:52:10.112Z,24.00
2018-03-23T10:54:40.176Z,23.62
2018-03-23T10:57:09.167Z,20.55
2018-03-23T10:59:37.167Z,22.08
2018-03-23T11:02:06.979Z,19.70
2018-03-23T11:04:39.059Z,20.50
2018-03-23T11:07:11.675Z,19.35
2018-03-23T11:09:42.360Z,20.23
2018-03-23T11:12:11.263Z,19.15
2018-03-23T11:14:40.171Z,19.87
2018-03-23T11:17:08.631Z,17.40
2018-03-23T11:19:36.638Z,16.25
2018-03-23T11:22:05.416Z,21.12
2018-03-23T11:24:34.331Z,19.50
2018-03-23T11:27:02.350Z,20.42
2018-03-23T11:29:30.351Z,22.00
2018-03-23T11:32:06.147Z,19.33
2018-03-23T11:34:37.886Z,18.58
2018-03-23T11:37:11.518Z,20.15
2018-03-23T11:39:39.546Z,19.00
2018-03-23T11:42:08.499Z,17.48
2018-03-23T11:44:40.846Z,19.85
2018-03-23T11:47:10.751Z,24.80
2018-03-23T11:49:44.371Z,21.85
2018-03-23T11:52:12.379Z,18.95
2018-03-23T11:55:01.043Z,19.23
2018-03-23T11:57:29.052Z,25.88
2018-03-23T11:59:58.967Z,22.15
2018-03-23T12:02:27.883Z,25.02
2018-03-23T12:04:56.863Z,20.05
2018-03-23T12:07:25.806Z,22.55
2018-03-23T12:09:53.806Z,20.27
2018-03-23T12:12:21.811Z,24.42
2018-03-23T12:14:49.835Z,19.00
2018-03-23T12:17:17.857Z,19.58
2018-03-23T12:19:49.067Z,17.85
2018-03-23T12:22:17.074Z,18.50
2018-03-23T12:24:46.839Z,21.05
2018-03-23T12:27:16.763Z,20.42
2018-03-23T12:29:44.794Z,19.27
2018-03-23T12:32:13.743Z,19.00
2018-03-23T12:34:42.826Z,18.67
2018-03-23T12:37:10.822Z,19.37
2018-03-23T12:39:40.587Z,18.10
2018-03-23T12:42:09.590Z,19.85
2018-03-23T12:44:51.751Z,20.75
2018-03-23T12:47:20.678Z,19.75
2018-03-23T12:49:49.696Z,20.00
2018-03-23T12:52:21.218Z,20.10
2018-03-23T12:54:54.027Z,20.12
2018-03-23T12:57:25.870Z,21.45
2018-03-23T12:59:59.678Z,20.92
2018-03-23T13:02:30.706Z,22.27
2018-03-23T13:05:03.514Z,20.65
2018-03-23T13:07:35.038Z,21.73
2018-03-23T13:10:06.917Z,22.02
2018-03-23T13:12:34.930Z,20.25
2018-03-23T13:15:06.424Z,21.58
2018-03-23T13:17:34.450Z,21.50
2018-03-23T13:20:02.470Z,21.37
2018-03-23T13:22:30.498Z,20.70
2018-03-23T13:25:03.074Z,20.12
2018-03-23T13:27:33.059Z,20.20
2018-03-23T13:30:01.883Z,18.55
2018-03-23T13:32:30.814Z,19.50
2018-03-23T13:34:58.830Z,19.92
2018-03-23T13:37:29.068Z,20.27
2018-03-23T13:40:06.868Z,20.65
2018-03-23T13:42:34.911Z,20.37
2018-03-23T13:45:06.834Z,21.30
2018-03-23T13:47:35.950Z,20.88
2018-03-23T13:50:08.484Z,20.45
2018-03-23T13:52:36.430Z,21.70
2018-03-23T13:55:04.426Z,20.50
2018-03-23T13:57:37.939Z,22.77
2018-03-23T14:00:05.990Z,19.55
2018-03-23T14:02:34.714Z,21.58
2018-03-23T14:05:06.554Z,21.50
2018-03-23T14:07:42.901Z,21.08
2018-03-23T14:10:21.014Z,23.02
2018-03-23T14:12:50.028Z,21.25
2018-03-23T14:15:18.042Z,20.75
2018-03-23T14:17:47.032Z,23.25
2018-03-23T14:20:21.172Z,21.75
2018-03-23T14:22:52.438Z,22.27
2018-03-23T14:25:28.870Z,22.80
2018-03-23T14:27:57.897Z,20.90
2018-03-23T14:30:30.065Z,20.58
2018-03-23T14:32:59.050Z,21.77
2018-03-23T14:35:27.053Z,22.70
2018-03-23T14:38:10.502Z,20.52
2018-03-23T14:40:51.478Z,23.38
2018-03-23T14:43:19.525Z,32.22
2018-03-23T14:45:50.005Z,24.33
2018-03-23T14:48:28.009Z,21.83
2018-03-23T14:50:56.697Z,25.50
2018-03-23T14:53:24.705Z,23.83
2018-03-23T14:55:59.276Z,24.75
2018-03-23T14:58:27.281Z,24.20
2018-03-23T15:00:56.110Z,21.37
2018-03-23T15:03:24.166Z,22.25
2018-03-23T15:05:52.634Z,20.75
2018-03-23T15:08:23.382Z,21.17
2018-03-23T15:10:52.155Z,20.27
2018-03-23T15:13:29.325Z,19.58
2018-03-23T15:15:58.266Z,18.60
2018-03-23T15:18:27.349Z,17.65
2018-03-23T15:20:56.392Z,18.37
2018-03-23T15:23:28.049Z,17.75
2018-03-23T15:26:02.429Z,17.12
2018-03-23T15:28:30.865Z,18.17
2018-03-23T15:31:02.505Z,17.10
2018-03-23T15:36:25.874Z,16.12
2018-03-23T15:38:53.877Z,28.98
2018-03-23T15:41:27.418Z,17.02
2018-03-23T15:43:57.353Z,16.27
2018-03-23T15:46:30.947Z,17.62
2018-03-23T15:48:58.985Z,17.40
2018-03-23T15:51:33.981Z,20.12
2018-03-23T15:54:02.001Z,16.30
2018-03-23T15:56:30.008Z,18.45
2018-03-23T15:59:00.010Z,15.35
2018-03-23T16:01:30.026Z,22.48
2018-03-23T16:03:59.694Z,17.25
2018-03-23T16:06:28.033Z,17.25
2018-03-23T16:09:02.488Z,16.87
2018-03-23T16:11:32.451Z,17.52
2018-03-23T16:14:05.701Z,17.17
2018-03-23T16:16:33.710Z,20.15
2018-03-23T16:19:01.717Z,16.92
2018-03-23T16:21:31.481Z,16.05
2018-03-23T16:24:04.297Z,16.75
2018-03-23T16:26:32.305Z,17.70
2018-03-23T16:29:01.225Z,18.37
2018-03-23T16:31:30.225Z,15.90
2018-03-23T16:33:58.321Z,16.85
2018-03-23T16:36:26.253Z,18.55
2018-03-23T16:38:54.261Z,17.90
2018-03-23T16:41:24.981Z,17.70
2018-03-23T16:43:53.953Z,17.92
2018-03-23T16:46:22.007Z,15.48
2018-03-23T16:48:56.732Z,18.62
2018-03-23T16:51:24.741Z,16.75
2018-03-23T16:53:52.749Z,21.52
2018-03-23T16:56:20.765Z,18.62
2018-03-23T16:58:56.797Z,21.30
2018-03-23T17:01:30.564Z,27.37
2018-03-23T17:04:06.365Z,25.23
2018-03-23T17:09:30.233Z,20.67
2018-03-23T17:11:59.193Z,21.52
2018-03-23T17:14:28.097Z,23.65
2018-03-23T17:16:57.121Z,31.77
2018-03-23T17:19:30.773Z,17.67
2018-03-23T17:21:58.773Z,16.17
2018-03-23T17:24:28.726Z,15.73
2018-03-23T17:26:56.768Z,15.65
2018-03-23T17:29:24.757Z,18.00
2018-03-23T17:31:53.745Z,17.83
2018-03-23T17:34:26.098Z,18.05
2018-03-23T17:36:58.094Z,21.55
2018-03-23T17:39:26.109Z,19.95
2018-03-23T17:41:55.776Z,18.83
2018-03-23T17:44:23.793Z,20.65
2018-03-23T17:47:00.545Z,18.87
2018-03-23T17:49:34.681Z,27.70
2018-03-23T17:52:02.697Z,35.90
2018-03-23T17:54:31.677Z,37.70
2018-03-23T17:57:01.602Z,36.00
2018-03-23T17:59:30.584Z,31.65
2018-03-23T18:02:00.509Z,32.80
2018-03-23T18:04:33.173Z,29.48
2018-03-23T18:07:04.933Z,28.00
2018-03-23T18:09:33.928Z,27.33
2018-03-23T18:12:01.957Z,24.90
2018-03-23T18:14:30.900Z,28.83
2018-03-23T18:17:04.679Z,32.83
2018-03-23T18:19:37.488Z,39.50
2018-03-23T18:22:10.153Z,35.33
2018-03-23T18:24:38.221Z,32.83
2018-03-23T18:27:07.229Z,24.00
2018-03-23T18:29:36.213Z,20.27
2018-03-23T18:32:04.241Z,19.75
2018-03-23T18:34:32.260Z,19.20
2018-03-23T18:37:02.269Z,20.35
2018-03-23T18:39:31.257Z,20.77
2018-03-23T18:41:59.277Z,24.80
2018-03-23T18:44:28.053Z,22.15
2018-03-23T18:46:56.057Z,20.42
2018-03-23T18:49:24.072Z,24.25
2018-03-23T18:51:52.078Z,24.63
2018-03-23T18:54:32.576Z,23.62
2018-03-23T18:57:14.489Z,23.60
2018-03-23T18:59:42.480Z,22.55
2018-03-23T19:02:16.469Z,23.58
2018-03-23T19:04:44.496Z,24.37
2018-03-23T19:07:17.105Z,30.12
2018-03-23T19:09:45.112Z,33.40
2018-03-23T19:12:19.192Z,31.15
2018-03-23T19:14:50.912Z,36.65
2018-03-23T19:17:24.636Z,33.85
2018-03-23T19:19:57.849Z,31.92
2018-03-23T19:22:36.344Z,30.12
2018-03-23T19:25:04.369Z,30.62
2018-03-23T19:27:34.156Z,28.30
2018-03-23T19:30:03.132Z,25.48
2018-03-23T19:32:32.112Z,27.48
2018-03-23T19:35:00.136Z,26.98
2018-03-23T19:37:32.464Z,27.45
2018-03-23T19:40:01.489Z,25.92
2018-03-23T19:42:36.556Z,27.77
2018-03-23T19:45:05.484Z,25.98
2018-03-23T19:47:39.180Z,27.48
2018-03-23T19:50:08.380Z,30.17
2018-03-23T19:55:37.408Z,30.30
2018-03-23T19:58:14.136Z,30.33
2018-03-23T20:00:59.579Z,31.25
2018-03-23T20:03:29.355Z,29.90
2018-03-23T20:06:07.337Z,30.30
2018-03-23T20:08:56.489Z,29.42
2018-03-23T20:11:25.536Z,28.92
2018-03-23T20:14:12.260Z,28.98
2018-03-23T20:16:41.071Z,29.10
2018-03-23T20:19:12.368Z,28.75
2018-03-23T20:21:42.304Z,25.12
2018-03-23T20:24:18.440Z,25.12
2018-03-23T20:29:55.468Z,25.88
2018-03-23T20:35:17.283Z,26.50
2018-03-23T20:37:46.276Z,26.33
2018-03-23T20:40:15.264Z,26.30
2018-03-23T20:42:49.172Z,24.55
2018-03-23T20:45:42.087Z,27.33
2018-03-23T20:48:29.883Z,26.75
2018-03-23T20:51:03.571Z,25.25
2018-03-23T20:53:31.656Z,26.27
2018-03-23T20:56:00.646Z,26.95
2018-03-23T20:58:29.608Z,28.52
2018-03-23T21:01:04.403Z,31.67
2018-03-23T21:03:34.362Z,28.65
2018-03-23T21:06:03.360Z,27.25
2018-03-23T21:08:35.104Z,29.65
2018-03-23T21:11:07.528Z,27.95
2018-03-23T21:13:36.472Z,27.60
2018-03-23T21:16:11.680Z,28.67
2018-03-23T21:18:57.964Z,26.25
2018-03-23T21:21:31.815Z,28.08
2018-03-23T21:24:07.844Z,30.42
2018-03-23T21:26:39.940Z,30.75
2018-03-23T21:29:10.456Z,40.50
2018-03-23T21:31:42.528Z,34.33
2018-03-23T21:34:27.755Z,36.75
2018-03-23T21:37:08.511Z,34.17
2018-03-23T21:39:47.720Z,31.67
2018-03-23T21:42:19.400Z,32.88
2018-03-23T21:44:49.156Z,33.67
2018-03-23T21:47:32.248Z,35.67
2018-03-23T21:50:02.205Z,34.13
2018-03-23T21:52:35.315Z,31.55
2018-03-23T21:55:04.456Z,32.65
2018-03-23T21:57:39.298Z,31.33
2018-03-23T22:00:16.795Z,30.35
2018-03-23T22:02:45.056Z,31.95
2018-03-23T22:05:15.727Z,31.52
2018-03-23T22:07:50.951Z,32.10
2018-03-23T22:10:32.403Z,31.70
2018-03-23T22:13:05.578Z,32.67
2018-03-23T22:15:40.031Z,33.95
2018-03-23T22:18:09.147Z,32.55
2018-03-23T22:20:46.759Z,31.90
2018-03-23T22:23:40.475Z,32.03
2018-03-23T22:26:09.520Z,33.80
2018-03-23T22:28:55.015Z,32.47
2018-03-23T22:31:39.904Z,32.65
2018-03-23T22:34:07.979Z,33.15
2018-03-23T22:39:34.185Z,30.65
2018-03-23T22:42:03.147Z,33.38
2018-03-23T22:44:33.006Z,34.30
2018-03-23T22:47:07.235Z,37.83
2018-03-23T22:49:44.588Z,40.35
2018-03-23T22:52:15.839Z,36.50
2018-03-23T22:54:45.867Z,39.17
2018-03-23T22:57:16.755Z,40.50
2018-03-23T23:00:04.054Z,38.17
2018-03-23T23:02:38.224Z,35.42
2018-03-23T23:05:07.347Z,35.70
2018-03-23T23:07:36.295Z,36.58
2018-03-23T23:10:14.395Z,33.72
2018-03-23T23:12:52.203Z,32.25
2018-03-23T23:15:46.051Z,32.95
2018-03-23T23:18:20.287Z,33.88
2018-03-23T23:20:51.491Z,32.72
2018-03-23T23:23:20.450Z,29.85
2018-03-23T23:25:54.759Z,31.70
2018-03-23T23:28:36.275Z,30.95
2018-03-23T23:31:17.191Z,31.05
2018-03-23T23:33:48.271Z,32.55
2018-03-23T23:36:21.951Z,30.05
2018-03-23T23:38:49.979Z,32.78
2018-03-23T23:41:18.011Z,33.90
2018-03-23T23:43:52.579Z,33.70
2018-03-23T23:46:21.607Z,30.65
2018-03-23T23:48:51.675Z,32.13
2018-03-23T23:51:26.027Z,32.67
2018-03-23T23:53:56.111Z,35.42
2018-03-23T23:56:29.770Z,35.80
2018-03-23T23:58:58.792Z,33.00
